Weikert, Pennsylvania
Current Conditions -  °F | °C
As of 12:53 AM on Friday 19 Dec 2014 (Local Time) from KSEG Reporting Station
Overcast Overcast  
Wind Chill: 30°   Ceiling: 2700
Heat Index: 34°   Visibility: 10mi
Dew Point: 25°   Wind: 5mph
Humidity: 70%   Direction: 280°W
Pressure: 30.05"   Gusts: NA
Location:  40.86°N, 77.3°W
Report Text: KSEG 190553Z AUTO 28004KT 10SM OVC027 01/M04 A3005 RMK AO2 SLP180 T00111039 10017 20011 58004
Loading
Personal Weather Stations






























Interactive Weather Map New forecast layout! Learn more

10-Day Weather Forecast

Advertisements
Track Severe Weather on mobile